Carlisle, Massachusetts
Current Conditions -  °F | °C
As of 3:56 PM on Saturday 22 Nov 2014 (Local Time) from KBED Reporting Station
Clear Clear  
Wind Chill: 34°   Ceiling: Unl
Heat Index: 41°   Visibility: 10mi
Dew Point:   Wind: 13mph
Humidity: 21%   Direction: 230°SW
Pressure: 30.13"   Gusts: 20mph
Location:  42.53°N, 71.35°W
Report Text: KBED 222056Z AUTO 23011G17KT 10SM CLR 05/M16 A3013 RMK AO2 SLP218 T00501156 56025 TSNO
Loading
Personal Weather Stations






























Interactive Weather Map New forecast layout! Learn more

10-Day Weather Forecast

Advertisements
Track Severe Weather on mobile